Elfin Cove, Alaska
Current Conditions -  °F | °C
As of 12:36 AM on Thursday 18 Dec 2014 (Local Time) from PAGS Reporting Station
Broken Clouds Broken Clouds  
Wind Chill: 30°   Ceiling: 6500
Heat Index: 30°   Visibility: 10mi
Dew Point: 28°   Wind: 0mph
Humidity: 93%   Direction: NA
Pressure: 29.64"   Gusts: NA
Location:  58.19°N, 136.34°W
Report Text: PAGS 180936Z AUTO 00000KT 10SM FEW037 SCT060 BKN065 M01/M02 A2964 RMK AO1 PNO
Loading
Personal Weather Stations






























Interactive Weather Map New forecast layout! Learn more

10-Day Weather Forecast

Advertisements
Track Severe Weather on mobile